Time;durP1;ratioP1;P1;durP2;ratioP2;P2;SDS_P1;SDS_P2;PMS_P1;PMS_P2;Temp;Humidity;BMP_temperature;BMP_pressure;BME280_temperature;BME280_humidity;BME280_pressure;Samples;Min_cycle;Max_cycle;Signal;HPM_P1;HPM_P2
2022/02/04 00:20:10;;;;;;;16.10;14.45;;;5.80;99.90;;;;;;4944249;23;20261;-82
2022/02/04 00:21:39;;;;;;;15.48;13.45;;;5.90;99.90;;;;;;4993576;28;20234;-82
2022/02/04 00:24:08;;;;;;;17.08;13.30;;;6.10;99.90;;;;;;5018710;28;20209;-80
2022/02/04 00:26:40;;;;;;;14.05;12.65;;;6.20;99.90;;;;;;5018899;28;20211;-81
2022/02/04 00:29:14;;;;;;;15.80;12.70;;;6.30;99.90;;;;;;5018647;28;20278;-80
2022/02/04 00:31:42;;;;;;;16.10;13.55;;;6.40;99.90;;;;;;5017615;28;20199;-82
2022/02/04 00:34:13;;;;;;;14.52;13.07;;;6.50;99.90;;;;;;5018014;28;20210;-81
2022/02/04 00:36:46;;;;;;;14.55;13.05;;;6.50;99.90;;;;;;5017845;28;20195;-82
2022/02/04 00:39:17;;;;;;;14.85;12.52;;;6.60;99.90;;;;;;5018599;28;20211;-80
2022/02/04 00:41:46;;;;;;;13.43;11.98;;;6.70;99.90;;;;;;5017679;28;20573;-82
2022/02/04 00:44:19;;;;;;;15.15;12.02;;;6.70;99.90;;;;;;5018640;28;20501;-80
2022/02/04 00:46:59;;;;;;;14.95;11.13;;;6.70;99.90;;;;;;5017542;28;20319;-82
2022/02/04 00:49:37;;;;;;;15.77;12.02;;;6.80;99.90;;;;;;5018283;28;20206;-82
2022/02/04 00:52:09;;;;;;;15.10;12.57;;;6.80;99.90;;;;;;5017800;28;20297;-81
2022/02/04 00:54:48;;;;;;;15.75;13.95;;;6.80;99.90;;;;;;5018329;28;20246;-82
2022/02/04 00:57:30;;;;;;;13.85;11.35;;;6.80;99.90;;;;;;5003734;28;20317;-82
2022/02/04 01:27:30;;;;;;;12.52;10.30;;;6.80;99.90;;;;;;5002870;28;20601;-81
2022/02/04 01:30:02;;;;;;;12.05;10.20;;;6.80;99.90;;;;;;5018211;28;20227;-82
2022/02/04 01:32:29;;;;;;;13.63;11.43;;;6.80;99.90;;;;;;5017321;28;20210;-82
2022/02/04 01:34:56;;;;;;;11.35;10.18;;;6.90;99.90;;;;;;5017457;28;20274;-82
2022/02/04 01:37:23;;;;;;;10.98;9.88;;;6.90;99.90;;;;;;5017390;28;20203;-82
2022/02/04 01:39:50;;;;;;;11.60;10.32;;;6.90;99.90;;;;;;5017042;28;20230;-81
2022/02/04 01:42:17;;;;;;;12.40;10.25;;;6.80;99.90;;;;;;5017839;28;20207;-82
2022/02/04 01:44:44;;;;;;;12.65;11.30;;;6.70;99.90;;;;;;5019637;28;20214;-82
2022/02/04 01:47:14;;;;;;;11.57;10.45;;;6.80;99.90;;;;;;5020616;28;20750;-80
2022/02/04 01:49:40;;;;;;;12.10;10.90;;;6.80;99.90;;;;;;5021409;28;20234;-80
2022/02/04 01:52:08;;;;;;;10.90;9.77;;;6.70;99.90;;;;;;5020558;28;20217;-82
2022/02/04 01:54:35;;;;;;;11.75;10.73;;;6.80;99.90;;;;;;5021342;28;20199;-82
2022/02/04 01:57:01;;;;;;;13.32;11.10;;;6.70;99.90;;;;;;5021743;28;20691;-81
2022/02/04 01:59:28;;;;;;;14.40;12.85;;;6.80;99.90;;;;;;5020345;28;20251;-82
2022/02/04 02:01:55;;;;;;;15.82;12.65;;;6.90;99.90;;;;;;5020443;28;20558;-80
2022/02/04 02:04:23;;;;;;;12.65;11.35;;;6.90;99.90;;;;;;5020946;28;20227;-82
2022/02/04 02:06:54;;;;;;;11.85;10.02;;;6.80;99.90;;;;;;5021306;28;20301;-82
2022/02/04 02:09:26;;;;;;;14.18;11.13;;;6.90;99.90;;;;;;5020731;28;20623;-82
2022/02/04 02:11:56;;;;;;;11.00;9.55;;;6.90;99.90;;;;;;5021927;28;20211;-82
2022/02/04 02:14:26;;;;;;;12.25;10.93;;;6.90;99.90;;;;;;5021136;28;20211;-81
2022/02/04 02:33:01;;;;;;;11.18;10.07;;;6.80;99.90;;;;;;5020773;28;20202;-82
2022/02/04 02:39:23;;;;;;;9.27;8.25;;;6.60;99.90;;;;;;5021082;28;20210;-82
2022/02/04 02:44:56;;;;;;;11.23;10.10;;;5.90;99.90;;;;;;4986299;28;20208;-81
2022/02/04 02:47:40;;;;;;;12.27;8.95;;;5.70;99.90;;;;;;4986650;28;20228;-82
2022/02/04 02:50:24;;;;;;;10.73;9.05;;;5.60;99.90;;;;;;5002117;28;20295;-78
2022/02/04 02:53:25;;;;;;;10.75;9.32;;;5.60;99.90;;;;;;5027020;28;20214;-81
2022/02/04 02:56:17;;;;;;;8.63;7.72;;;5.70;99.90;;;;;;5026843;28;20203;-81
2022/02/04 02:58:49;;;;;;;9.95;8.43;;;5.70;99.90;;;;;;5021842;28;20253;-81
2022/02/04 03:01:16;;;;;;;9.63;8.73;;;5.70;99.90;;;;;;5019953;28;20229;-82
2022/02/04 03:03:48;;;;;;;9.85;8.15;;;5.60;99.90;;;;;;5020620;28;20221;-82
2022/02/04 03:06:14;;;;;;;8.25;7.53;;;5.70;99.90;;;;;;5019759;28;20210;-80
2022/02/04 03:08:41;;;;;;;8.30;7.57;;;5.70;99.90;;;;;;5019527;28;20712;-82
2022/02/04 03:11:09;;;;;;;8.75;7.95;;;5.70;99.90;;;;;;5019594;28;20238;-82
2022/02/04 03:13:36;;;;;;;7.85;7.18;;;5.70;99.90;;;;;;5019206;28;20207;-82
2022/02/04 03:16:06;;;;;;;8.45;6.95;;;5.80;99.90;;;;;;5020353;28;20207;-81
2022/02/04 03:18:36;;;;;;;8.50;7.70;;;5.90;99.90;;;;;;5019745;28;20756;-81
2022/02/04 03:21:09;;;;;;;10.35;9.30;;;5.90;99.90;;;;;;5019236;28;20346;-82
2022/02/04 03:23:38;;;;;;;9.75;8.63;;;5.90;99.90;;;;;;5019340;28;20571;-82
2022/02/04 03:26:10;;;;;;;9.55;7.60;;;6.00;99.90;;;;;;5019931;28;20665;-81
2022/02/04 03:28:38;;;;;;;12.10;9.07;;;6.10;99.90;;;;;;5019512;28;20277;-80
2022/02/04 03:31:06;;;;;;;9.68;7.00;;;6.30;99.90;;;;;;5019522;28;20313;-78
2022/02/04 03:33:34;;;;;;;14.77;8.98;;;6.50;99.90;;;;;;5018437;28;20199;-80
2022/02/04 03:36:01;;;;;;;9.05;8.25;;;6.50;99.90;;;;;;5019853;28;20223;-81
2022/02/04 03:38:28;;;;;;;8.57;7.50;;;6.50;99.90;;;;;;5018994;28;20574;-82
2022/02/04 03:40:55;;;;;;;7.90;7.30;;;6.50;99.90;;;;;;5019640;28;20234;-82
2022/02/04 03:43:21;;;;;;;9.07;8.10;;;6.60;99.90;;;;;;5019852;28;20199;-81
2022/02/04 03:45:49;;;;;;;8.55;7.80;;;6.60;99.90;;;;;;5018952;28;20214;-82
2022/02/04 03:48:16;;;;;;;7.88;7.10;;;6.60;99.90;;;;;;5019618;28;20234;-81
2022/02/04 03:50:43;;;;;;;8.80;7.88;;;6.60;99.90;;;;;;5018748;28;20254;-81
2022/02/04 03:53:13;;;;;;;9.90;8.80;;;6.50;99.90;;;;;;5018668;28;20199;-79
2022/02/04 03:55:41;;;;;;;7.57;6.78;;;6.40;99.90;;;;;;5021640;28;20290;-80
2022/02/04 03:58:08;;;;;;;8.55;7.55;;;6.30;99.90;;;;;;5019564;28;20196;-81
2022/02/04 04:00:35;;;;;;;9.85;8.70;;;6.20;99.90;;;;;;5018518;28;20230;-81
2022/02/04 04:03:04;;;;;;;9.40;8.57;;;6.10;99.90;;;;;;5019096;28;20207;-79
2022/02/04 04:05:32;;;;;;;8.10;7.20;;;6.20;99.90;;;;;;5019112;28;20222;-81
2022/02/04 04:07:59;;;;;;;8.43;6.70;;;6.20;99.90;;;;;;5018397;28;20219;-81
2022/02/04 04:10:27;;;;;;;7.40;6.65;;;6.20;99.90;;;;;;5018365;28;20621;-81
2022/02/04 04:12:58;;;;;;;6.90;6.20;;;6.20;99.90;;;;;;5018938;28;20199;-80
2022/02/04 04:15:25;;;;;;;6.38;5.57;;;6.30;99.90;;;;;;5019159;28;20575;-80
2022/02/04 04:17:52;;;;;;;6.97;6.35;;;6.20;99.90;;;;;;5018408;28;20199;-81
2022/02/04 04:20:22;;;;;;;7.35;6.35;;;6.20;99.90;;;;;;5018232;28;20227;-80
2022/02/04 04:22:49;;;;;;;7.90;7.10;;;6.20;99.90;;;;;;5018754;28;20203;-81
2022/02/04 04:25:17;;;;;;;7.55;6.63;;;6.20;99.90;;;;;;5018767;28;20865;-81
2022/02/04 04:27:44;;;;;;;9.65;7.55;;;6.10;99.90;;;;;;5018070;28;20230;-81
2022/02/04 04:30:13;;;;;;;6.07;5.57;;;6.00;99.90;;;;;;5017450;28;20258;-80
2022/02/04 04:32:40;;;;;;;7.70;6.43;;;6.10;99.90;;;;;;5018585;28;20233;-81
2022/02/04 04:35:10;;;;;;;7.40;6.70;;;6.20;99.90;;;;;;5018874;28;20215;-80
2022/02/04 04:37:42;;;;;;;7.03;6.28;;;6.30;99.90;;;;;;5018335;28;20222;-81
2022/02/04 04:40:27;;;;;;;8.23;7.50;;;6.50;99.90;;;;;;5019021;28;20266;-80
2022/02/04 04:43:04;;;;;;;6.40;5.75;;;6.50;99.90;;;;;;5018516;28;20211;-81
2022/02/04 04:46:08;;;;;;;6.95;6.35;;;6.50;99.90;;;;;;5017782;28;20214;-79
2022/02/04 05:30:08;;;;;;;7.80;7.10;;;6.00;99.90;;;;;;4976839;28;20228;-80
2022/02/04 05:32:35;;;;;;;9.13;8.25;;;5.90;99.90;;;;;;5007725;28;20243;-81
2022/02/04 05:35:07;;;;;;;9.50;8.45;;;6.00;99.90;;;;;;5017113;28;20206;-79
2022/02/04 05:37:34;;;;;;;9.25;8.38;;;6.00;99.90;;;;;;5017321;28;20245;-81
2022/02/04 05:40:06;;;;;;;10.40;9.57;;;5.90;99.90;;;;;;5019976;28;20223;-81
2022/02/04 05:42:38;;;;;;;8.45;7.75;;;6.00;99.90;;;;;;5017192;28;20206;-81
2022/02/04 05:45:06;;;;;;;8.27;7.45;;;6.00;99.90;;;;;;5018981;28;20227;-80
2022/02/04 05:47:34;;;;;;;8.32;7.57;;;5.90;99.90;;;;;;5017380;28;20226;-80
2022/02/04 05:50:15;;;;;;;7.72;7.10;;;6.00;99.90;;;;;;5016968;28;20223;-80
2022/02/04 05:53:01;;;;;;;7.93;6.90;;;6.00;99.90;;;;;;5017466;28;20268;-80
2022/02/04 05:55:48;;;;;;;7.93;7.22;;;6.00;99.90;;;;;;5017007;28;20217;-80
2022/02/04 05:58:29;;;;;;;6.85;6.20;;;6.00;99.90;;;;;;5013816;28;20688;-78
2022/02/04 06:01:09;;;;;;;8.90;8.02;;;5.90;99.90;;;;;;5012924;28;20280;-79
2022/02/04 06:03:46;;;;;;;7.93;7.00;;;6.00;99.90;;;;;;5012423;28;20211;-78
2022/02/04 06:06:37;;;;;;;7.55;6.95;;;6.00;99.90;;;;;;5012772;28;20206;-78
2022/02/04 06:12:03;;;;;;;7.15;6.53;;;5.90;99.90;;;;;;5060391;23;20218;-84
2022/02/04 06:14:49;;;;;;;8.40;7.60;;;5.90;99.90;;;;;;5018123;28;20202;-84
2022/02/04 06:22:42;;;;;;;7.55;6.93;;;5.90;99.90;;;;;;5018205;28;20575;-83
2022/02/04 06:25:10;;;;;;;9.25;8.35;;;6.00;99.90;;;;;;5018189;28;20232;-84
2022/02/04 06:27:38;;;;;;;11.75;8.80;;;5.90;99.90;;;;;;5017743;28;20247;-83
2022/02/04 06:30:07;;;;;;;10.07;9.10;;;5.80;99.90;;;;;;5017414;28;20234;-84
2022/02/04 06:32:34;;;;;;;8.88;8.00;;;5.90;99.90;;;;;;5020570;28;20206;-83
2022/02/04 06:35:01;;;;;;;7.82;7.03;;;5.90;99.90;;;;;;5021452;28;20203;-84
2022/02/04 06:37:28;;;;;;;8.07;7.25;;;6.00;99.90;;;;;;5022288;28;20207;-84
2022/02/04 06:39:55;;;;;;;9.73;6.75;;;5.90;99.90;;;;;;5021872;28;20255;-84
2022/02/04 06:42:23;;;;;;;7.18;6.45;;;5.70;99.90;;;;;;5030263;28;20211;-84
2022/02/04 06:44:50;;;;;;;7.75;6.95;;;5.60;99.90;;;;;;5030589;28;20213;-84
2022/02/04 06:47:18;;;;;;;10.88;7.68;;;5.60;99.90;;;;;;5031819;28;20210;-83
2022/02/04 06:49:45;;;;;;;9.02;7.75;;;5.60;99.90;;;;;;5020143;28;20562;-84
2022/02/04 06:52:12;;;;;;;8.30;7.35;;;5.60;99.90;;;;;;5020232;28;20211;-82
2022/02/04 06:54:39;;;;;;;8.52;7.65;;;5.60;99.90;;;;;;5020349;28;20214;-84
2022/02/04 06:57:06;;;;;;;9.82;8.80;;;5.50;99.90;;;;;;5020746;28;20222;-81
2022/02/04 06:59:36;;;;;;;8.05;7.22;;;5.40;99.90;;;;;;5020019;28;20206;-84
2022/02/04 07:02:03;;;;;;;9.15;8.13;;;5.40;99.90;;;;;;5020891;28;20223;-85
2022/02/04 07:04:34;;;;;;;6.35;5.40;;;5.40;99.90;;;;;;5020090;28;20199;-85
2022/02/04 07:07:02;;;;;;;11.80;8.45;;;5.40;99.90;;;;;;5020969;28;20600;-85
2022/02/04 07:09:41;;;;;;;11.45;8.30;;;5.40;99.90;;;;;;5020801;28;20230;-83
2022/02/04 07:12:20;;;;;;;16.60;8.85;;;5.40;99.90;;;;;;5020254;28;20735;-85
2022/02/04 07:15:09;;;;;;;14.27;7.57;;;5.40;99.90;;;;;;5020697;28;20680;-85
2022/02/04 07:17:42;;;;;;;7.40;6.70;;;5.30;99.90;;;;;;5020015;28;20214;-84
2022/02/04 07:20:10;;;;;;;8.13;7.28;;;5.30;99.90;;;;;;5020234;28;20313;-81
2022/02/04 07:22:38;;;;;;;8.85;7.95;;;5.30;99.90;;;;;;5020762;28;20250;-82
2022/02/04 07:25:07;;;;;;;9.65;8.20;;;5.30;99.90;;;;;;5019972;28;20275;-84
2022/02/04 07:27:37;;;;;;;9.60;8.60;;;5.40;99.90;;;;;;5020980;28;20211;-85
2022/02/04 07:30:05;;;;;;;8.80;7.53;;;5.50;99.90;;;;;;5020920;28;20219;-80
2022/02/04 07:32:36;;;;;;;7.47;6.70;;;5.50;99.90;;;;;;5020394;28;20668;-84
2022/02/04 07:35:30;;;;;;;10.30;8.90;;;5.40;99.90;;;;;;5021149;28;20206;-83
2022/02/04 07:40:56;;;;;;;10.63;8.60;;;5.40;99.90;;;;;;5001618;28;20648;-84
2022/02/04 07:43:25;;;;;;;11.95;9.52;;;5.40;99.90;;;;;;5011456;28;20676;-82
2022/02/04 07:45:52;;;;;;;10.60;9.50;;;5.40;99.90;;;;;;5020597;28;20214;-84
2022/02/04 07:48:19;;;;;;;9.30;8.02;;;5.30;99.90;;;;;;5020353;28;20215;-84
2022/02/04 07:50:48;;;;;;;11.07;9.88;;;5.40;99.90;;;;;;5020952;28;20241;-84
2022/02/04 07:53:17;;;;;;;9.52;8.60;;;5.40;99.90;;;;;;5021515;28;20266;-85
2022/02/04 07:55:43;;;;;;;13.30;9.75;;;5.40;99.90;;;;;;5022000;28;20215;-81
2022/02/04 07:58:12;;;;;;;12.65;9.45;;;5.50;99.90;;;;;;5021502;28;20222;-84
2022/02/04 08:00:39;;;;;;;11.88;10.05;;;5.70;99.90;;;;;;5021207;28;20223;-84
2022/02/04 08:03:20;;;;;;;11.70;10.32;;;5.70;99.90;;;;;;5020941;28;20261;-84
2022/02/04 08:05:48;;;;;;;11.50;10.40;;;5.70;99.90;;;;;;5021580;28;20206;-84
2022/02/04 08:08:21;;;;;;;11.57;10.38;;;5.90;99.90;;;;;;5020654;28;20226;-83
2022/02/04 08:11:04;;;;;;;17.90;10.48;;;5.90;99.90;;;;;;5020712;28;20358;-84
2022/02/04 08:13:48;;;;;;;13.30;10.23;;;5.80;99.90;;;;;;5020959;28;20203;-84
2022/02/04 08:16:53;;;;;;;11.27;9.00;;;5.80;99.90;;;;;;5022604;28;20209;-83
2022/02/04 08:25:35;;;;;;;14.65;9.88;;;5.80;99.90;;;;;;5007558;28;20218;-85
2022/02/04 08:31:26;;;;;;;13.68;10.55;;;6.00;99.90;;;;;;5022925;28;20274;-89
2022/02/04 08:34:11;;;;;;;12.05;10.90;;;6.10;99.90;;;;;;5021099;28;20241;-82
2022/02/04 08:53:33;;;;;;;12.35;10.32;;;6.00;99.90;;;;;;5012251;28;20202;-83
2022/02/04 08:56:00;;;;;;;13.70;11.48;;;6.00;99.90;;;;;;5022764;28;20196;-83
2022/02/04 08:58:33;;;;;;;14.23;11.38;;;6.00;99.90;;;;;;5026537;28;20307;-83
2022/02/04 09:01:06;;;;;;;12.15;10.43;;;6.10;99.90;;;;;;5020800;28;20223;-83
2022/02/04 09:03:41;;;;;;;12.05;10.85;;;6.20;99.90;;;;;;5020577;28;20273;-83
2022/02/04 09:06:12;;;;;;;11.20;10.20;;;6.30;99.90;;;;;;5020455;28;20684;-85
2022/02/04 09:08:42;;;;;;;11.15;9.35;;;6.30;99.90;;;;;;5019937;28;20226;-85
2022/02/04 09:11:14;;;;;;;10.77;9.77;;;6.40;99.90;;;;;;5020816;28;20237;-83
2022/02/04 09:19:14;;;;;;;8.15;7.43;;;6.60;99.90;;;;;;5020703;28;20205;-83
2022/02/04 09:22:19;;;;;;;9.02;8.05;;;6.60;99.90;;;;;;5021789;28;20222;-83
2022/02/04 09:24:46;;;;;;;8.30;7.50;;;6.60;99.90;;;;;;5021487;28;20229;-82
2022/02/04 09:27:13;;;;;;;8.98;7.00;;;6.80;99.90;;;;;;5020727;28;20229;-82
2022/02/04 09:29:42;;;;;;;8.45;6.80;;;6.90;99.90;;;;;;5022414;28;20218;-81
2022/02/04 09:32:08;;;;;;;6.68;5.68;;;7.00;99.90;;;;;;5023774;28;20198;-82
2022/02/04 09:34:35;;;;;;;8.32;6.07;;;7.00;99.90;;;;;;5020035;28;20202;-81
2022/02/04 09:37:02;;;;;;;6.82;6.15;;;7.00;99.90;;;;;;5018547;28;20210;-81
2022/02/04 09:39:29;;;;;;;7.18;6.13;;;7.10;99.90;;;;;;5016441;28;20567;-82
2022/02/04 09:41:55;;;;;;;9.00;7.28;;;7.20;99.90;;;;;;5018593;28;20203;-81
2022/02/04 09:44:22;;;;;;;6.82;6.20;;;7.50;99.90;;;;;;5018853;28;20211;-82
2022/02/04 09:46:50;;;;;;;8.30;6.22;;;7.60;99.90;;;;;;5019480;28;20214;-82
2022/02/04 09:49:23;;;;;;;5.95;5.43;;;7.60;99.90;;;;;;5018311;28;20226;-80
2022/02/04 10:09:03;;;;;;;5.40;5.00;;;7.80;99.90;;;;;;5023455;28;20270;-84
2022/02/04 10:14:51;;;;;;;5.30;4.75;;;8.10;99.90;;;;;;5024463;28;20221;-81
2022/02/04 10:17:23;;;;;;;4.65;3.95;;;8.00;99.90;;;;;;5005507;28;20298;-80
2022/02/04 10:19:56;;;;;;;4.25;3.58;;;8.20;99.90;;;;;;5016396;28;20225;-81
2022/02/04 10:22:29;;;;;;;3.55;3.25;;;8.10;99.90;;;;;;5025525;28;20238;-81
2022/02/04 10:25:01;;;;;;;3.03;2.67;;;8.10;99.90;;;;;;5024302;28;20230;-83
2022/02/04 10:27:30;;;;;;;3.60;3.30;;;8.20;99.90;;;;;;5021254;28;20218;-84
2022/02/04 10:29:59;;;;;;;4.15;3.85;;;8.30;99.90;;;;;;5019241;28;20227;-82
2022/02/04 10:32:39;;;;;;;3.80;3.10;;;8.40;99.90;;;;;;5019971;28;20206;-82
2022/02/04 10:35:09;;;;;;;2.88;2.55;;;8.60;99.90;;;;;;5020923;28;20203;-80
2022/02/04 10:37:41;;;;;;;2.83;2.63;;;8.50;99.90;;;;;;5020383;28;20211;-81
2022/02/04 10:40:30;;;;;;;2.53;2.28;;;8.30;99.90;;;;;;5021822;28;20225;-84
2022/02/04 10:43:07;;;;;;;3.10;2.58;;;8.50;99.90;;;;;;5023134;28;20238;-83
2022/02/04 10:45:48;;;;;;;3.42;3.25;;;8.50;99.90;;;;;;5022106;28;20242;-81
2022/02/04 11:00:11;;;;;;;3.70;3.38;;;8.00;99.90;;;;;;5022443;28;20743;-82
2022/02/04 11:02:42;;;;;;;3.25;3.05;;;7.90;99.90;;;;;;5021821;28;20299;-82
2022/02/04 11:05:20;;;;;;;3.25;2.95;;;7.90;99.90;;;;;;5021996;28;20214;-82
2022/02/04 11:11:05;;;;;;;2.75;2.33;;;8.10;99.90;;;;;;5020011;28;20281;-81
2022/02/04 11:56:05;;;;;;;1.52;1.42;;;8.10;99.90;;;;;;4992446;28;20637;-85
2022/02/04 11:59:02;;;;;;;1.00;1.00;;;8.00;99.90;;;;;;5001233;28;20282;-84
2022/02/04 12:01:48;;;;;;;1.88;1.75;;;7.90;99.90;;;;;;5021863;28;20230;-85
2022/02/04 12:04:21;;;;;;;1.75;1.65;;;7.80;99.90;;;;;;5021337;28;20226;-84
2022/02/04 12:13:09;;;;;;;1.70;1.60;;;7.50;99.90;;;;;;5034815;23;20241;-84
2022/02/04 12:15:39;;;;;;;1.38;1.27;;;7.60;99.90;;;;;;4996576;28;20203;-84
2022/02/04 12:18:07;;;;;;;1.35;1.25;;;7.90;99.90;;;;;;5021167;28;20208;-84
2022/02/04 12:20:57;;;;;;;1.10;1.00;;;8.00;99.90;;;;;;5023688;28;20202;-84
2022/02/04 12:23:46;;;;;;;1.35;1.17;;;8.10;99.90;;;;;;5010738;28;20335;-82
2022/02/04 12:26:16;;;;;;;0.90;0.80;;;7.90;99.90;;;;;;5009249;28;20203;-83
2022/02/04 12:28:44;;;;;;;0.90;0.90;;;7.80;99.90;;;;;;5007952;28;20204;-81
2022/02/04 12:31:14;;;;;;;1.40;1.30;;;7.70;99.90;;;;;;5007627;28;20227;-81
2022/02/04 12:33:42;;;;;;;1.90;1.70;;;7.60;99.90;;;;;;5021156;28;20203;-81
2022/02/04 12:36:17;;;;;;;1.90;1.80;;;7.70;99.90;;;;;;5013493;28;20570;-81
2022/02/04 12:38:44;;;;;;;1.38;1.27;;;7.70;99.90;;;;;;5001332;28;20207;-81
2022/02/04 12:41:20;;;;;;;1.45;1.35;;;7.40;99.90;;;;;;5011777;28;20219;-80
2022/02/04 12:43:49;;;;;;;1.13;1.08;;;7.40;99.90;;;;;;5021788;28;20215;-80
2022/02/04 12:46:17;;;;;;;1.48;1.40;;;7.50;99.90;;;;;;5008411;28;20211;-81
2022/02/04 12:48:56;;;;;;;1.30;1.20;;;7.60;99.90;;;;;;5001689;28;20603;-81
2022/02/04 12:51:39;;;;;;;1.15;1.08;;;7.60;99.90;;;;;;5013306;28;20226;-81
2022/02/04 12:54:06;;;;;;;1.67;1.58;;;7.70;99.90;;;;;;5019799;28;20238;-81
2022/02/04 12:56:37;;;;;;;1.80;1.13;;;7.70;99.90;;;;;;5006567;28;20206;-81
2022/02/04 12:59:37;;;;;;;1.25;1.20;;;7.60;99.90;;;;;;5000418;28;20669;-81
2022/02/04 13:02:18;;;;;;;1.50;1.40;;;7.60;99.90;;;;;;5017259;28;20258;-81
2022/02/04 13:07:46;;;;;;;2.80;1.60;;;7.80;99.90;;;;;;5021493;28;20229;-85
2022/02/04 13:10:17;;;;;;;3.50;1.58;;;7.90;99.90;;;;;;5019170;28;20226;-81
2022/02/04 13:12:52;;;;;;;1.33;1.23;;;7.90;99.90;;;;;;5001164;28;20235;-81
2022/02/04 13:15:20;;;;;;;1.17;1.17;;;7.90;99.90;;;;;;5002611;28;20239;-81
2022/02/04 13:17:48;;;;;;;1.73;1.30;;;8.00;99.90;;;;;;5019413;28;20214;-81
2022/02/04 13:20:20;;;;;;;1.30;1.20;;;7.70;99.90;;;;;;5017879;28;20207;-81
2022/02/04 13:22:47;;;;;;;1.02;1.02;;;7.70;99.90;;;;;;5000455;28;20225;-81
2022/02/04 13:25:17;;;;;;;1.05;1.05;;;7.70;99.90;;;;;;5020858;28;20210;-81
2022/02/04 13:28:08;;;;;;;1.50;1.40;;;7.70;99.90;;;;;;5010186;28;20212;-82
2022/02/04 13:30:36;;;;;;;1.00;1.00;;;7.70;99.90;;;;;;5017468;28;20249;-81
2022/02/04 13:33:15;;;;;;;2.40;2.20;;;7.50;99.90;;;;;;5004770;28;20209;-82
2022/02/04 13:35:43;;;;;;;1.60;1.50;;;7.50;99.90;;;;;;5003643;28;20697;-82
2022/02/04 13:38:23;;;;;;;1.60;1.42;;;7.40;99.90;;;;;;5002882;28;20615;-82
2022/02/04 13:41:04;;;;;;;1.60;1.50;;;7.40;99.90;;;;;;5001356;28;20214;-81
2022/02/04 13:43:41;;;;;;;1.27;1.17;;;7.40;99.90;;;;;;5002409;28;20752;-83
2022/02/04 13:46:18;;;;;;;1.65;1.55;;;7.30;99.90;;;;;;5002041;28;20215;-82
2022/02/04 13:49:05;;;;;;;1.63;1.52;;;7.30;99.90;;;;;;5006726;28;20195;-82
2022/02/04 13:51:44;;;;;;;1.13;1.08;;;7.40;99.90;;;;;;5004359;28;20238;-82
2022/02/04 13:54:53;;;;;;;2.88;1.58;;;7.40;99.90;;;;;;5002997;28;20230;-82
2022/02/04 13:57:32;;;;;;;1.70;1.60;;;7.40;99.90;;;;;;5002466;28;20211;-82
2022/02/04 14:00:14;;;;;;;1.65;1.30;;;7.40;99.90;;;;;;5002978;28;20215;-83
2022/02/04 14:02:46;;;;;;;1.45;1.35;;;7.40;99.90;;;;;;5002355;28;20250;-82
2022/02/04 14:05:25;;;;;;;1.92;1.30;;;7.40;99.90;;;;;;5001713;28;20207;-82
2022/02/04 14:07:55;;;;;;;2.08;1.92;;;7.30;99.90;;;;;;5001291;28;20222;-83
2022/02/04 14:10:28;;;;;;;1.90;1.80;;;7.30;99.90;;;;;;5002706;28;20247;-82
2022/02/04 14:13:00;;;;;;;2.00;1.75;;;7.30;99.90;;;;;;5001910;28;20259;-82
2022/02/04 14:15:28;;;;;;;2.22;1.52;;;7.30;99.90;;;;;;5003201;28;20211;-82
2022/02/04 14:17:56;;;;;;;1.55;1.45;;;7.30;99.90;;;;;;5003348;28;20208;-82
2022/02/04 14:20:25;;;;;;;1.77;1.67;;;7.20;99.90;;;;;;5003021;28;20608;-82
2022/02/04 14:22:51;;;;;;;1.73;1.58;;;7.20;99.90;;;;;;5002254;28;20231;-83
2022/02/04 14:25:18;;;;;;;1.73;1.13;;;7.30;99.90;;;;;;5002744;28;20211;-82
2022/02/04 14:27:49;;;;;;;0.90;0.90;;;7.30;99.90;;;;;;5002742;28;20314;-82
2022/02/04 14:30:20;;;;;;;1.33;1.23;;;7.40;99.90;;;;;;5002444;28;20231;-81
2022/02/04 14:32:54;;;;;;;0.73;0.73;;;7.30;99.90;;;;;;5002014;28;20251;-82
2022/02/04 14:35:28;;;;;;;2.47;1.15;;;7.30;99.90;;;;;;5001932;28;20242;-82
2022/02/04 14:49:24;;;;;;;1.88;1.10;;;7.20;99.90;;;;;;4976704;28;20311;-82
2022/02/04 14:52:14;;;;;;;0.98;0.98;;;7.30;99.90;;;;;;5000358;28;20215;-82
2022/02/04 14:58:32;;;;;;;1.48;1.38;;;7.40;99.90;;;;;;5016609;28;20254;-82
2022/02/04 15:03:16;;;;;;;0.90;0.90;;;7.30;99.90;;;;;;5006291;28;20234;-82
2022/02/04 15:05:46;;;;;;;1.08;1.00;;;7.30;99.90;;;;;;5014923;28;20216;-82
2022/02/04 15:08:16;;;;;;;1.63;0.90;;;7.10;99.90;;;;;;5006160;28;20230;-85
2022/02/04 15:10:46;;;;;;;1.05;0.80;;;7.20;99.90;;;;;;5015137;28;20215;-82
2022/02/04 15:13:15;;;;;;;0.93;0.93;;;7.20;99.90;;;;;;5032839;28;20211;-82
2022/02/04 15:15:43;;;;;;;1.17;1.17;;;7.20;99.90;;;;;;5036662;28;20708;-81
2022/02/04 15:18:10;;;;;;;1.10;0.80;;;7.20;99.90;;;;;;5028328;28;20203;-83
2022/02/04 15:20:38;;;;;;;0.60;0.60;;;7.20;99.90;;;;;;5024595;28;20652;-82
2022/02/04 15:23:06;;;;;;;0.60;0.60;;;7.20;99.90;;;;;;5008090;28;20713;-82
2022/02/04 15:25:32;;;;;;;0.82;0.80;;;7.10;99.90;;;;;;5019183;28;20259;-82
2022/02/04 15:28:15;;;;;;;0.57;0.57;;;7.20;99.90;;;;;;5020987;28;20206;-83
2022/02/04 15:30:45;;;;;;;0.80;0.80;;;7.20;99.90;;;;;;5011646;28;20227;-83
2022/02/04 15:33:12;;;;;;;0.60;0.60;;;7.20;99.90;;;;;;5021409;28;20653;-81
2022/02/04 15:35:39;;;;;;;0.70;0.70;;;7.20;99.90;;;;;;5024499;28;20271;-83
2022/02/04 15:38:06;;;;;;;0.98;0.98;;;7.20;99.90;;;;;;5015101;28;20207;-82
2022/02/04 15:40:33;;;;;;;0.90;0.90;;;7.30;99.90;;;;;;5025053;28;20660;-81
2022/02/04 15:43:03;;;;;;;0.80;0.80;;;7.30;99.90;;;;;;5020129;28;20227;-81
2022/02/04 15:48:24;;;;;;;0.80;0.80;;;7.30;99.90;;;;;;5023882;28;20202;-81
2022/02/04 15:51:04;;;;;;;0.80;0.80;;;7.30;99.90;;;;;;5010242;28;20241;-80
2022/02/04 15:53:35;;;;;;;1.20;0.95;;;7.40;99.90;;;;;;5003289;28;20219;-80
2022/02/04 15:56:24;;;;;;;1.00;1.00;;;7.40;99.90;;;;;;5003034;28;20208;-79
2022/02/04 15:59:05;;;;;;;1.40;1.00;;;7.30;99.90;;;;;;5006077;28;20212;-80
2022/02/04 16:01:49;;;;;;;1.20;1.10;;;7.30;99.90;;;;;;5013238;28;20219;-80
2022/02/04 16:04:23;;;;;;;2.30;0.80;;;7.20;99.90;;;;;;5001130;28;20215;-80
2022/02/04 16:06:51;;;;;;;0.85;0.85;;;7.20;99.90;;;;;;5011155;28;20234;-79
2022/02/04 16:09:20;;;;;;;0.68;0.68;;;7.20;99.90;;;;;;5019617;28;20203;-80
2022/02/04 16:12:01;;;;;;;0.88;0.88;;;7.10;99.90;;;;;;5007808;28;20258;-80
2022/02/04 16:14:33;;;;;;;1.30;1.20;;;7.20;99.90;;;;;;5009427;28;20203;-80
2022/02/04 16:17:08;;;;;;;1.17;0.82;;;7.00;99.90;;;;;;5002161;28;20214;-80
2022/02/04 16:19:40;;;;;;;0.80;0.80;;;7.00;99.90;;;;;;5000708;28;20203;-79
2022/02/04 16:22:26;;;;;;;1.35;1.25;;;7.20;99.90;;;;;;5001798;28;20220;-79
2022/02/04 16:30:26;;;;;;;1.42;1.33;;;7.10;99.90;;;;;;5009000;28;20235;-80
2022/02/04 16:32:53;;;;;;;1.20;1.20;;;7.20;99.90;;;;;;5010162;28;20222;-80
2022/02/04 16:35:21;;;;;;;1.00;1.00;;;7.10;99.90;;;;;;5009199;28;20444;-83
2022/02/04 16:38:00;;;;;;;0.80;0.80;;;7.10;99.90;;;;;;5014589;28;20211;-80
2022/02/04 16:40:27;;;;;;;1.20;1.20;;;7.00;99.90;;;;;;5017465;28;20267;-79
2022/02/04 16:42:54;;;;;;;0.77;0.77;;;7.10;99.90;;;;;;5017322;28;20746;-80
2022/02/04 16:45:21;;;;;;;1.33;1.13;;;7.00;99.90;;;;;;5019678;28;20203;-80
2022/02/04 16:47:51;;;;;;;0.80;0.80;;;7.00;99.90;;;;;;5008409;28;20621;-80
2022/02/04 16:50:21;;;;;;;1.10;0.90;;;7.00;99.90;;;;;;5003385;28;20601;-78
2022/02/04 16:52:48;;;;;;;0.80;0.70;;;7.00;99.90;;;;;;5019947;28;20231;-80
2022/02/04 16:55:15;;;;;;;1.70;1.20;;;6.90;99.90;;;;;;5017354;28;20206;-80
2022/02/04 16:57:41;;;;;;;3.47;0.77;;;6.90;99.90;;;;;;5006373;28;20195;-79
2022/02/04 17:00:20;;;;;;;0.75;0.75;;;7.00;99.90;;;;;;5009319;28;20235;-80
2022/02/04 17:02:47;;;;;;;0.63;0.60;;;7.00;99.90;;;;;;5019879;28;20226;-80
2022/02/04 17:05:15;;;;;;;0.90;0.90;;;7.00;99.90;;;;;;5008727;28;20740;-83
2022/02/04 17:07:43;;;;;;;1.02;1.02;;;6.90;99.90;;;;;;5021553;28;20801;-82
2022/02/04 17:10:12;;;;;;;1.85;1.05;;;6.80;99.90;;;;;;5021148;28;20211;-82
2022/02/04 17:12:42;;;;;;;1.55;1.45;;;6.80;99.90;;;;;;5002588;28;20231;-82
2022/02/04 17:15:09;;;;;;;0.93;0.70;;;6.80;99.90;;;;;;5001127;28;20306;-82
2022/02/04 17:17:36;;;;;;;1.20;1.10;;;6.70;99.90;;;;;;5020477;28;20198;-80
2022/02/04 17:20:08;;;;;;;0.93;0.70;;;6.80;99.90;;;;;;5013643;28;20222;-79
2022/02/04 17:22:37;;;;;;;0.50;0.50;;;6.90;99.90;;;;;;5019319;28;20222;-83
2022/02/04 17:25:09;;;;;;;1.10;0.93;;;6.90;99.90;;;;;;5016160;28;20290;-81
2022/02/04 17:27:37;;;;;;;0.95;0.95;;;6.90;99.90;;;;;;5003541;28;20204;-81
2022/02/04 17:30:05;;;;;;;0.68;0.68;;;6.90;99.90;;;;;;5001573;28;20215;-79
2022/02/04 17:32:32;;;;;;;0.98;0.98;;;7.00;99.90;;;;;;5005302;28;20224;-82
2022/02/04 17:34:59;;;;;;;0.95;0.75;;;7.00;99.90;;;;;;5021466;28;20558;-83
2022/02/04 17:37:26;;;;;;;1.10;0.98;;;7.10;99.90;;;;;;5009421;28;20203;-84
2022/02/04 17:39:58;;;;;;;0.95;0.70;;;7.10;99.90;;;;;;5013114;28;20211;-85
2022/02/04 17:42:26;;;;;;;1.08;1.08;;;7.00;99.90;;;;;;5021977;28;20231;-79
2022/02/04 17:44:56;;;;;;;1.65;1.00;;;7.00;99.90;;;;;;5015338;28;20294;-84